Terminal Aerodrome Forecast
Issued by NWS

Home | Current Version | Previous Version | Text Only | Print | Product List | Glossary On
Versions: 1 2 3 4 5 6 7 8 9 10 11 12 13 14 15 16 17 18 19 20 21
614
FTAK31 PAJN 131940 AAA
TAFAYA
TAF AMD
PAYA 131940Z 1320/1418 10008KT 4SM BR SCT008 OVC012
      TEMPO 1320/1322 1SM -SHRA BR OVC008
     FM140100 07005KT P6SM -SHRA FEW010 BKN015 OVC025
     FM140500 06003KT P6SM -RA SCT015 BKN030 OVC050
     FM140900 10007KT 6SM -RA BR BKN015 OVC030
     FM141300 12005KT 4SM -RA BR SCT007 OVC015
      AMD LTD TO CLD VIS AND WIND 1401/1409=

USA.gov is the U.S. government's official web portal to all federal, state and local government web resources and services.